createdAt,value
2023-03-13T00:00:19.522Z,13.40
2023-03-13T00:00:52.700Z,13.17
2023-03-13T00:01:37.209Z,13.40
2023-03-13T00:02:09.072Z,12.10
2023-03-13T00:02:40.805Z,11.93
2023-03-13T00:03:12.600Z,11.73
2023-03-13T00:03:44.477Z,12.03
2023-03-13T00:04:16.417Z,14.03
2023-03-13T00:04:48.203Z,14.20
2023-03-13T00:05:20.008Z,12.50
2023-03-13T00:05:57.424Z,12.77
2023-03-13T00:06:33.683Z,12.27
2023-03-13T00:07:05.767Z,12.73
2023-03-13T00:07:37.912Z,13.37
2023-03-13T00:08:09.743Z,14.70
2023-03-13T00:08:41.661Z,15.40
2023-03-13T00:09:16.128Z,13.77
2023-03-13T00:09:47.904Z,12.93
2023-03-13T00:10:19.738Z,12.80
2023-03-13T00:10:52.331Z,13.07
2023-03-13T00:11:24.150Z,13.00
2023-03-13T00:11:56.224Z,15.17
2023-03-13T00:12:27.997Z,15.27
2023-03-13T00:12:59.734Z,14.87
2023-03-13T00:13:31.611Z,15.47
2023-03-13T00:14:05.107Z,14.67
2023-03-13T00:14:36.888Z,16.23
2023-03-13T00:15:09.182Z,17.67
2023-03-13T00:15:41.300Z,17.50
2023-03-13T00:16:16.136Z,18.23
2023-03-13T00:16:48.059Z,18.70
2023-03-13T00:17:20.003Z,18.93
2023-03-13T00:17:51.887Z,18.73
2023-03-13T00:18:23.670Z,19.03
2023-03-13T00:18:57.008Z,19.87
2023-03-13T00:19:28.918Z,19.87
2023-03-13T00:20:01.566Z,21.30
2023-03-13T00:20:33.359Z,22.10
2023-03-13T00:21:08.339Z,22.47
2023-03-13T00:21:41.522Z,21.17
2023-03-13T00:22:13.379Z,21.93
2023-03-13T00:22:45.242Z,20.23
2023-03-13T00:23:16.984Z,18.17
2023-03-13T00:23:49.343Z,17.07
2023-03-13T00:24:21.144Z,19.57
2023-03-13T00:24:53.013Z,18.97
2023-03-13T00:25:24.935Z,14.80
2023-03-13T00:26:18.927Z,14.60
2023-03-13T00:26:50.705Z,16.80
2023-03-13T00:27:22.471Z,16.70
2023-03-13T00:27:54.262Z,16.20
2023-03-13T00:28:28.683Z,16.03
2023-03-13T00:29:00.525Z,14.43
2023-03-13T00:29:34.118Z,12.87
2023-03-13T00:30:06.330Z,13.30
2023-03-13T00:30:38.119Z,12.90
2023-03-13T00:31:19.509Z,13.20
2023-03-13T00:31:51.402Z,13.60
2023-03-13T00:32:23.333Z,13.30
2023-03-13T00:32:55.156Z,11.83
2023-03-13T00:33:26.950Z,11.93
2023-03-13T00:34:01.238Z,11.97
2023-03-13T00:34:32.964Z,10.77
2023-03-13T00:35:05.017Z,11.03
2023-03-13T00:35:36.767Z,10.47
2023-03-13T00:36:23.277Z,10.93
2023-03-13T00:36:56.160Z,11.67
2023-03-13T00:37:27.884Z,11.23
2023-03-13T00:37:59.589Z,10.60
2023-03-13T00:38:32.329Z,11.33
2023-03-13T00:39:06.432Z,10.90
2023-03-13T00:39:38.164Z,10.10
2023-03-13T00:40:10.544Z,10.50
2023-03-13T00:40:42.315Z,10.60
2023-03-13T00:41:17.681Z,11.10
2023-03-13T00:41:49.439Z,10.20
2023-03-13T00:42:22.594Z,10.57
2023-03-13T00:42:54.365Z,11.60
2023-03-13T00:43:26.139Z,12.03
2023-03-13T00:43:58.503Z,11.13
2023-03-13T00:44:30.513Z,11.27
2023-03-13T00:45:02.596Z,10.67
2023-03-13T00:45:34.308Z,10.53
2023-03-13T00:46:06.775Z,10.17
2023-03-13T00:46:39.164Z,10.57
2023-03-13T00:47:10.941Z,10.73
2023-03-13T00:47:43.203Z,9.90
2023-03-13T00:48:14.949Z,10.50
2023-03-13T00:48:47.351Z,10.70
2023-03-13T00:49:19.051Z,10.53
2023-03-13T00:49:50.872Z,10.63
2023-03-13T00:50:22.740Z,11.13
2023-03-13T00:50:54.709Z,11.37
2023-03-13T00:51:27.719Z,11.23
2023-03-13T00:51:59.582Z,10.97
2023-03-13T00:52:31.367Z,11.77
2023-03-13T00:53:03.161Z,11.63
2023-03-13T00:53:35.890Z,10.90
2023-03-13T00:54:07.632Z,11.33
2023-03-13T00:54:39.466Z,12.07
2023-03-13T00:55:11.311Z,12.67
2023-03-13T00:55:53.605Z,11.93
2023-03-13T00:56:25.530Z,12.33
2023-03-13T00:56:57.325Z,12.90
2023-03-13T00:57:29.225Z,12.43
2023-03-13T00:58:01.026Z,11.77
2023-03-13T00:58:36.373Z,11.67
2023-03-13T00:59:08.119Z,12.67
2023-03-13T00:59:39.871Z,11.90
2023-03-13T01:00:12.236Z,11.10
2023-03-13T01:00:44.011Z,11.50
2023-03-13T01:01:19.851Z,12.03
2023-03-13T01:01:51.637Z,11.37
2023-03-13T01:02:23.592Z,11.50
2023-03-13T01:02:55.643Z,10.83
2023-03-13T01:03:27.483Z,10.80
2023-03-13T01:04:11.381Z,10.37
2023-03-13T01:04:43.100Z,10.07
2023-03-13T01:05:14.900Z,9.90
2023-03-13T01:05:56.004Z,10.60
2023-03-13T01:06:30.923Z,10.10
2023-03-13T01:07:02.675Z,9.57
2023-03-13T01:07:34.491Z,10.30
2023-03-13T01:08:06.308Z,10.50
2023-03-13T01:08:39.260Z,10.50
2023-03-13T01:09:14.544Z,10.77
2023-03-13T01:09:46.333Z,10.27
2023-03-13T01:10:18.655Z,10.07
2023-03-13T01:10:51.059Z,10.77
2023-03-13T01:11:25.507Z,11.10
2023-03-13T01:11:57.244Z,11.00
2023-03-13T01:12:30.120Z,10.80
2023-03-13T01:13:02.125Z,10.50
2023-03-13T01:13:34.564Z,10.97
2023-03-13T01:14:10.562Z,11.33
2023-03-13T01:14:42.294Z,10.63
2023-03-13T01:15:14.067Z,11.47
2023-03-13T01:15:45.831Z,10.63
2023-03-13T01:16:21.112Z,10.13
2023-03-13T01:16:52.905Z,10.33
2023-03-13T01:17:24.655Z,9.83
2023-03-13T01:17:56.696Z,10.40
2023-03-13T01:18:28.767Z,9.90
2023-03-13T01:19:03.465Z,10.40
2023-03-13T01:19:35.216Z,10.40
2023-03-13T01:20:08.598Z,10.40
2023-03-13T01:20:41.090Z,10.00
2023-03-13T01:21:14.224Z,10.50
2023-03-13T01:21:47.015Z,10.40
2023-03-13T01:22:18.775Z,9.63
2023-03-13T01:22:50.595Z,9.60
2023-03-13T01:23:22.471Z,10.07
2023-03-13T01:23:55.197Z,10.53
2023-03-13T01:24:26.976Z,10.03
2023-03-13T01:24:58.735Z,10.00
2023-03-13T01:25:30.460Z,10.13
2023-03-13T01:26:05.132Z,10.20
2023-03-13T01:26:37.230Z,9.23
2023-03-13T01:27:08.956Z,9.07
2023-03-13T01:27:40.777Z,10.27
2023-03-13T01:28:12.553Z,10.50
2023-03-13T01:28:45.040Z,9.93
2023-03-13T01:29:16.784Z,10.23
2023-03-13T01:29:48.496Z,9.40
2023-03-13T01:30:20.314Z,9.97
2023-03-13T01:30:52.964Z,10.20
2023-03-13T01:31:30.841Z,10.87
2023-03-13T01:32:02.666Z,10.40
2023-03-13T01:32:34.474Z,9.73
2023-03-13T01:33:06.295Z,9.73
2023-03-13T01:33:38.196Z,10.07
2023-03-13T01:34:11.341Z,9.87
2023-03-13T01:34:43.140Z,10.37
2023-03-13T01:35:15.354Z,10.03
2023-03-13T01:35:47.398Z,9.53
2023-03-13T01:36:19.330Z,9.20
2023-03-13T01:36:52.427Z,9.17
2023-03-13T01:37:24.243Z,9.93
2023-03-13T01:37:56.026Z,10.20
2023-03-13T01:38:27.761Z,10.00
2023-03-13T01:39:01.204Z,9.90
2023-03-13T01:39:32.926Z,9.37
2023-03-13T01:40:04.894Z,9.73
2023-03-13T01:40:48.238Z,10.13
2023-03-13T01:41:21.712Z,9.90
2023-03-13T01:41:53.500Z,9.80
2023-03-13T01:42:25.329Z,9.70
2023-03-13T01:43:00.019Z,10.10
2023-03-13T01:43:34.045Z,9.87
2023-03-13T01:44:06.103Z,10.10
2023-03-13T01:44:57.581Z,9.13
2023-03-13T01:45:53.730Z,8.87
2023-03-13T01:46:28.151Z,9.57
2023-03-13T01:47:00.160Z,10.30
2023-03-13T01:47:31.949Z,10.07
2023-03-13T01:48:05.228Z,9.93
2023-03-13T01:48:40.502Z,9.87
2023-03-13T01:49:25.590Z,10.80
2023-03-13T01:49:57.362Z,10.50
2023-03-13T01:50:29.188Z,10.07
2023-03-13T01:51:03.984Z,10.13
2023-03-13T01:51:44.216Z,9.43
2023-03-13T01:52:27.855Z,9.83
2023-03-13T01:52:59.714Z,9.17
2023-03-13T01:53:34.801Z,9.73
2023-03-13T01:54:29.539Z,10.10
2023-03-13T01:55:09.301Z,10.60
2023-03-13T01:55:41.757Z,10.13
2023-03-13T01:56:22.815Z,10.07
2023-03-13T01:57:02.036Z,9.63
2023-03-13T01:57:41.177Z,10.07
2023-03-13T01:58:13.736Z,9.97
2023-03-13T01:58:48.007Z,10.50
2023-03-13T01:59:26.625Z,10.13
2023-03-13T02:00:08.753Z,9.70
2023-03-13T02:00:43.919Z,10.00
2023-03-13T02:01:16.625Z,10.33
2023-03-13T02:01:51.219Z,9.70
2023-03-13T02:02:24.879Z,9.70
2023-03-13T02:03:02.621Z,9.63
2023-03-13T02:03:36.837Z,9.77
2023-03-13T02:04:09.077Z,9.63
2023-03-13T02:04:46.928Z,9.83
2023-03-13T02:05:22.841Z,9.60
2023-03-13T02:05:56.987Z,10.43
2023-03-13T02:06:33.068Z,9.60
2023-03-13T02:07:16.297Z,10.37
2023-03-13T02:07:57.195Z,9.93
2023-03-13T02:08:39.881Z,9.83
2023-03-13T02:09:17.940Z,9.50
2023-03-13T02:09:53.671Z,9.97
2023-03-13T02:10:27.292Z,10.03
2023-03-13T02:11:06.688Z,9.23
2023-03-13T02:11:49.966Z,9.33
2023-03-13T02:12:32.864Z,9.70
2023-03-13T02:13:04.699Z,9.77
2023-03-13T02:13:36.555Z,9.90
2023-03-13T02:14:08.547Z,9.93
2023-03-13T02:14:44.792Z,9.80
2023-03-13T02:15:19.411Z,9.37
2023-03-13T02:15:52.167Z,9.77
2023-03-13T02:16:24.561Z,10.37
2023-03-13T02:16:56.757Z,9.80
2023-03-13T02:17:30.097Z,9.97
2023-03-13T02:18:01.956Z,9.63
2023-03-13T02:18:34.203Z,9.47
2023-03-13T02:19:19.924Z,10.37
2023-03-13T02:19:52.478Z,11.43
2023-03-13T02:20:24.894Z,11.80
2023-03-13T02:21:22.602Z,10.80
2023-03-13T02:22:03.361Z,9.93
2023-03-13T02:23:11.729Z,18.47
2023-03-13T02:24:28.055Z,25.77
2023-03-13T02:25:11.649Z,27.37
2023-03-13T02:25:52.529Z,28.03
2023-03-13T02:26:24.428Z,27.27
2023-03-13T02:26:56.677Z,28.73
2023-03-13T02:27:28.509Z,27.90
2023-03-13T02:28:13.411Z,28.20
2023-03-13T02:28:45.334Z,27.90
2023-03-13T02:29:18.589Z,27.20
2023-03-13T02:29:52.112Z,28.13
2023-03-13T02:30:24.852Z,26.27
2023-03-13T02:30:58.857Z,26.17
2023-03-13T02:31:31.804Z,26.77
2023-03-13T02:32:04.794Z,25.17
2023-03-13T02:32:37.381Z,23.20
2023-03-13T02:33:09.630Z,19.10
2023-03-13T02:33:44.158Z,16.90
2023-03-13T02:34:23.390Z,15.60
2023-03-13T02:35:03.780Z,14.57
2023-03-13T02:35:37.216Z,13.53
2023-03-13T02:36:09.399Z,12.80
2023-03-13T02:36:42.875Z,10.80
2023-03-13T02:37:15.549Z,11.00
2023-03-13T02:37:52.465Z,15.67
2023-03-13T02:38:27.613Z,21.70
2023-03-13T02:39:05.944Z,23.00
2023-03-13T02:39:42.041Z,23.83
2023-03-13T02:40:18.333Z,25.87
2023-03-13T02:40:53.553Z,26.60
2023-03-13T02:41:27.211Z,26.17
2023-03-13T02:42:01.924Z,26.50
2023-03-13T02:42:33.770Z,28.47
2023-03-13T02:43:12.637Z,29.23
2023-03-13T02:43:44.390Z,28.13
2023-03-13T02:44:16.361Z,26.93
2023-03-13T02:44:48.337Z,26.30
2023-03-13T02:45:20.311Z,25.80
2023-03-13T02:46:15.191Z,24.80
2023-03-13T02:46:52.860Z,22.57
2023-03-13T02:47:25.768Z,19.20
2023-03-13T02:47:57.471Z,18.13
2023-03-13T02:48:35.704Z,14.67
2023-03-13T02:49:20.261Z,15.57
2023-03-13T02:49:52.082Z,16.93
2023-03-13T02:50:24.318Z,16.30
2023-03-13T02:50:56.172Z,16.67
2023-03-13T02:51:55.153Z,13.93
2023-03-13T02:52:33.322Z,15.10
2023-03-13T02:53:07.931Z,12.90
2023-03-13T02:53:40.457Z,12.33
2023-03-13T02:54:21.490Z,11.93
2023-03-13T02:55:00.607Z,11.20
2023-03-13T02:55:41.323Z,10.83
2023-03-13T02:56:17.007Z,11.13
2023-03-13T02:56:54.812Z,10.93
2023-03-13T02:57:26.868Z,11.27
2023-03-13T02:57:58.699Z,10.67
2023-03-13T02:58:49.192Z,10.30
2023-03-13T02:59:21.824Z,9.77
2023-03-13T02:59:53.653Z,10.20
2023-03-13T03:00:27.194Z,9.63
2023-03-13T03:01:00.853Z,10.13
2023-03-13T03:01:33.096Z,10.70
2023-03-13T03:02:05.238Z,9.67
2023-03-13T03:02:36.993Z,9.90
2023-03-13T03:03:08.778Z,10.00
2023-03-13T03:03:40.632Z,10.17
2023-03-13T03:04:12.925Z,9.43
2023-03-13T03:04:44.877Z,10.07
2023-03-13T03:05:16.812Z,10.03
2023-03-13T03:05:48.596Z,9.77
2023-03-13T03:06:20.686Z,10.53
2023-03-13T03:06:53.590Z,10.17
2023-03-13T03:07:25.359Z,9.87
2023-03-13T03:07:57.129Z,10.10
2023-03-13T03:08:28.877Z,13.37
2023-03-13T03:09:00.634Z,17.67
2023-03-13T03:09:32.418Z,17.53
2023-03-13T03:10:05.157Z,17.30
2023-03-13T03:10:37.397Z,17.67
2023-03-13T03:11:09.175Z,17.33
2023-03-13T03:11:41.235Z,16.80
2023-03-13T03:12:13.024Z,17.07
2023-03-13T03:12:44.878Z,17.57
2023-03-13T03:13:16.595Z,17.87
2023-03-13T03:13:48.418Z,18.13
2023-03-13T03:14:20.213Z,18.60
2023-03-13T03:14:51.949Z,18.97
2023-03-13T03:15:23.822Z,19.37
2023-03-13T03:15:55.738Z,18.70
2023-03-13T03:16:27.670Z,17.07
2023-03-13T03:16:59.440Z,18.77
2023-03-13T03:17:31.345Z,19.13
2023-03-13T03:18:03.125Z,19.53
2023-03-13T03:18:35.858Z,19.83
2023-03-13T03:19:07.799Z,19.77
2023-03-13T03:19:39.548Z,19.83
2023-03-13T03:20:12.280Z,18.73
2023-03-13T03:20:44.277Z,18.77
2023-03-13T03:21:16.097Z,18.40
2023-03-13T03:21:49.723Z,16.57
2023-03-13T03:22:21.504Z,14.83
2023-03-13T03:22:53.239Z,14.03
2023-03-13T03:23:24.952Z,13.90
2023-03-13T03:23:56.723Z,13.77
2023-03-13T03:24:28.573Z,13.87
2023-03-13T03:25:00.361Z,13.27
2023-03-13T03:25:32.213Z,12.70
2023-03-13T03:26:05.970Z,13.13
2023-03-13T03:26:37.945Z,14.13
2023-03-13T03:27:10.669Z,12.47
2023-03-13T03:27:42.384Z,12.77
2023-03-13T03:28:14.100Z,13.87
2023-03-13T03:28:46.271Z,15.33
2023-03-13T03:29:18.129Z,15.40
2023-03-13T03:29:49.896Z,14.97
2023-03-13T03:30:21.926Z,14.07
2023-03-13T03:30:54.483Z,13.90
2023-03-13T03:31:26.220Z,13.97
2023-03-13T03:31:58.063Z,14.90
2023-03-13T03:32:30.047Z,14.57
2023-03-13T03:33:04.239Z,14.13
2023-03-13T03:33:37.379Z,15.63
2023-03-13T03:34:09.181Z,16.33
2023-03-13T03:34:40.918Z,17.47
2023-03-13T03:35:12.639Z,17.73
2023-03-13T03:35:44.846Z,16.60
2023-03-13T03:36:20.131Z,16.60
2023-03-13T03:36:51.895Z,17.50
2023-03-13T03:37:23.629Z,17.70
2023-03-13T03:37:55.356Z,17.63
2023-03-13T03:38:27.188Z,18.03
2023-03-13T03:38:59.231Z,18.50
2023-03-13T03:39:31.008Z,19.07
2023-03-13T03:40:05.708Z,18.30
2023-03-13T03:40:39.903Z,17.93
2023-03-13T03:41:14.248Z,19.83
2023-03-13T03:41:46.038Z,19.23
2023-03-13T03:42:17.825Z,18.60
2023-03-13T03:42:49.554Z,18.67
2023-03-13T03:43:21.413Z,17.60
2023-03-13T03:43:53.191Z,17.17
2023-03-13T03:44:25.015Z,16.27
2023-03-13T03:44:56.750Z,15.80
2023-03-13T03:45:28.536Z,15.63
2023-03-13T03:46:00.423Z,14.87
2023-03-13T03:46:32.206Z,14.50
2023-03-13T03:47:04.114Z,14.97
2023-03-13T03:47:35.889Z,14.43
2023-03-13T03:48:07.648Z,14.43
2023-03-13T03:48:39.449Z,13.90
2023-03-13T03:49:11.184Z,14.30
2023-03-13T03:49:42.959Z,15.20
2023-03-13T03:50:14.868Z,16.60
2023-03-13T03:50:46.664Z,15.30
2023-03-13T03:51:18.456Z,14.07
2023-03-13T03:51:50.235Z,13.67
2023-03-13T03:52:21.964Z,12.83
2023-03-13T03:52:53.748Z,13.10
2023-03-13T03:53:25.895Z,13.40
2023-03-13T03:53:57.669Z,12.90
2023-03-13T03:54:29.496Z,11.63
2023-03-13T03:55:01.280Z,11.37
2023-03-13T03:55:35.048Z,11.43
2023-03-13T03:56:07.547Z,11.00
2023-03-13T03:56:39.343Z,11.37
2023-03-13T03:57:11.292Z,11.43
2023-03-13T03:57:43.043Z,11.53
2023-03-13T03:58:14.818Z,11.33
2023-03-13T03:58:46.747Z,11.20
2023-03-13T03:59:18.564Z,10.53
2023-03-13T03:59:50.330Z,10.47
2023-03-13T04:00:22.244Z,11.27
2023-03-13T04:00:57.850Z,11.23
2023-03-13T04:01:29.723Z,11.33
2023-03-13T04:02:01.654Z,10.73
2023-03-13T04:02:33.554Z,11.40
2023-03-13T04:03:05.399Z,11.33
2023-03-13T04:03:37.263Z,10.67
2023-03-13T04:04:10.150Z,10.00
2023-03-13T04:04:41.933Z,11.10
2023-03-13T04:05:13.863Z,10.17
2023-03-13T04:05:45.608Z,10.40
2023-03-13T04:06:17.348Z,10.77
2023-03-13T04:06:49.190Z,11.10
2023-03-13T04:07:20.930Z,11.43
2023-03-13T04:07:52.814Z,10.80
2023-03-13T04:08:24.904Z,10.07
2023-03-13T04:08:56.738Z,10.33
2023-03-13T04:09:30.948Z,10.47
2023-03-13T04:10:04.437Z,10.03
2023-03-13T04:10:36.823Z,10.23
2023-03-13T04:11:08.604Z,9.80
2023-03-13T04:11:40.523Z,9.50
2023-03-13T04:12:12.304Z,10.57
2023-03-13T04:12:44.380Z,10.30
2023-03-13T04:13:16.295Z,10.93
2023-03-13T04:13:48.042Z,11.13
2023-03-13T04:14:19.799Z,10.40
2023-03-13T04:14:51.545Z,10.60
2023-03-13T04:15:23.315Z,10.37
2023-03-13T04:15:55.091Z,10.93
2023-03-13T04:16:27.022Z,11.17
2023-03-13T04:16:58.845Z,11.07
2023-03-13T04:17:31.175Z,10.73
2023-03-13T04:18:02.909Z,10.10
2023-03-13T04:18:34.925Z,10.40
2023-03-13T04:19:07.574Z,10.23
2023-03-13T04:19:39.393Z,10.73
2023-03-13T04:20:13.612Z,11.13
2023-03-13T04:20:45.664Z,10.97
2023-03-13T04:21:17.438Z,10.50
2023-03-13T04:21:49.169Z,10.17
2023-03-13T04:22:21.026Z,10.73
2023-03-13T04:22:52.908Z,11.40
2023-03-13T04:23:24.677Z,11.10
2023-03-13T04:23:56.498Z,10.70
2023-03-13T04:24:28.259Z,11.70
2023-03-13T04:25:00.779Z,11.13
2023-03-13T04:25:32.624Z,10.40
2023-03-13T04:26:04.568Z,10.53
2023-03-13T04:26:36.351Z,10.77
2023-03-13T04:27:08.136Z,9.87
2023-03-13T04:27:39.934Z,9.93
2023-03-13T04:28:11.722Z,10.10
2023-03-13T04:28:43.537Z,10.30
2023-03-13T04:29:15.373Z,11.13
2023-03-13T04:29:47.143Z,11.33
2023-03-13T04:30:19.030Z,10.53
2023-03-13T04:30:50.867Z,10.27
2023-03-13T04:31:23.486Z,10.37
2023-03-13T04:31:55.646Z,10.57
2023-03-13T04:32:28.247Z,10.83
2023-03-13T04:33:00.233Z,10.17
2023-03-13T04:33:32.232Z,10.97
2023-03-13T04:34:04.024Z,10.47
2023-03-13T04:34:35.925Z,10.87
2023-03-13T04:35:09.132Z,10.70
2023-03-13T04:35:41.069Z,10.00
2023-03-13T04:36:12.981Z,9.87
2023-03-13T04:36:44.816Z,10.40
2023-03-13T04:37:16.970Z,10.97
2023-03-13T04:37:48.776Z,11.03
2023-03-13T04:38:20.529Z,10.67
2023-03-13T04:38:52.324Z,10.40
2023-03-13T04:39:25.472Z,10.30
2023-03-13T04:39:57.286Z,10.50
2023-03-13T04:40:29.673Z,10.30
2023-03-13T04:41:01.446Z,10.37
2023-03-13T04:41:33.348Z,9.93
2023-03-13T04:42:05.184Z,10.17
2023-03-13T04:42:37.033Z,11.30
2023-03-13T04:43:09.327Z,10.57
2023-03-13T04:43:41.090Z,11.53
2023-03-13T04:44:12.957Z,11.87
2023-03-13T04:44:45.197Z,11.43
2023-03-13T04:45:17.080Z,17.83
2023-03-13T04:45:50.271Z,15.33
2023-03-13T04:46:22.140Z,11.93
2023-03-13T04:46:53.923Z,10.33
2023-03-13T04:47:25.645Z,10.17
2023-03-13T04:47:57.388Z,10.73
2023-03-13T04:48:29.186Z,10.90
2023-03-13T04:49:01.020Z,10.10
2023-03-13T04:49:32.786Z,9.77
2023-03-13T04:50:05.021Z,10.40
2023-03-13T04:50:36.797Z,10.57
2023-03-13T04:51:08.731Z,10.73
2023-03-13T04:51:44.498Z,10.63
2023-03-13T04:52:16.243Z,11.10
2023-03-13T04:52:49.587Z,11.13
2023-03-13T04:53:21.727Z,11.13
2023-03-13T04:53:53.524Z,11.27
2023-03-13T04:54:25.345Z,11.57
2023-03-13T04:54:57.104Z,12.57
2023-03-13T04:55:28.875Z,11.67
2023-03-13T04:56:00.644Z,12.43
2023-03-13T04:56:42.807Z,11.57
2023-03-13T04:57:15.614Z,10.97
2023-03-13T04:57:47.353Z,11.13
2023-03-13T04:58:19.134Z,11.17
2023-03-13T04:58:50.930Z,12.60
2023-03-13T04:59:22.689Z,13.70
2023-03-13T04:59:54.441Z,12.00
2023-03-13T05:00:26.233Z,10.87
2023-03-13T05:00:58.190Z,11.03
2023-03-13T05:01:30.259Z,12.23
2023-03-13T05:02:02.043Z,11.37
2023-03-13T05:02:34.380Z,10.87
2023-03-13T05:03:06.118Z,10.50
2023-03-13T05:03:37.906Z,10.40
2023-03-13T05:04:10.763Z,10.73
2023-03-13T05:04:42.602Z,11.83
2023-03-13T05:05:14.474Z,11.13
2023-03-13T05:05:46.318Z,11.57
2023-03-13T05:06:18.272Z,11.13
2023-03-13T05:06:50.085Z,11.10
2023-03-13T05:07:21.811Z,10.47
2023-03-13T05:07:53.585Z,10.50
2023-03-13T05:08:25.373Z,10.97
2023-03-13T05:08:57.210Z,10.50
2023-03-13T05:09:29.075Z,10.77
2023-03-13T05:10:00.817Z,10.83
2023-03-13T05:10:32.574Z,10.40
2023-03-13T05:11:05.626Z,11.13
2023-03-13T05:11:37.891Z,11.83
2023-03-13T05:12:09.852Z,11.20
2023-03-13T05:12:41.702Z,10.80
2023-03-13T05:13:13.547Z,10.80
2023-03-13T05:13:45.434Z,10.47
2023-03-13T05:14:17.333Z,10.67
2023-03-13T05:14:50.420Z,10.27
2023-03-13T05:15:22.156Z,11.93
2023-03-13T05:15:54.065Z,11.17
2023-03-13T05:16:26.148Z,11.40
2023-03-13T05:16:58.779Z,11.20
2023-03-13T05:17:30.546Z,11.57
2023-03-13T05:18:02.442Z,11.53
2023-03-13T05:18:34.750Z,12.03
2023-03-13T05:19:06.530Z,12.97
2023-03-13T05:19:38.302Z,11.90
2023-03-13T05:20:11.422Z,11.47
2023-03-13T05:20:43.230Z,11.83
2023-03-13T05:21:15.086Z,12.40
2023-03-13T05:21:46.896Z,12.07
2023-03-13T05:22:18.706Z,12.93
2023-03-13T05:22:50.476Z,13.17
2023-03-13T05:23:22.387Z,13.43
2023-03-13T05:23:54.207Z,14.07
2023-03-13T05:24:26.006Z,14.17
2023-03-13T05:24:57.833Z,13.70
2023-03-13T05:25:29.766Z,12.60
2023-03-13T05:26:01.596Z,12.50
2023-03-13T05:26:33.446Z,12.67
2023-03-13T05:27:05.271Z,12.23
2023-03-13T05:27:37.008Z,11.07
2023-03-13T05:28:08.885Z,11.53
2023-03-13T05:28:40.952Z,11.43
2023-03-13T05:29:12.697Z,11.97
2023-03-13T05:29:44.457Z,12.10
2023-03-13T05:30:16.396Z,12.07
2023-03-13T05:30:48.197Z,12.80
2023-03-13T05:31:20.591Z,12.73
2023-03-13T05:31:52.433Z,12.67
2023-03-13T05:32:24.209Z,12.83
2023-03-13T05:32:56.038Z,14.33
2023-03-13T05:33:27.888Z,14.30
2023-03-13T05:33:59.730Z,15.50
2023-03-13T05:34:31.470Z,13.27
2023-03-13T05:35:03.409Z,13.17
2023-03-13T05:35:35.214Z,12.87
2023-03-13T05:36:07.554Z,12.00
2023-03-13T05:36:39.348Z,12.00
2023-03-13T05:37:11.177Z,10.93
2023-03-13T05:37:43.491Z,11.17
2023-03-13T05:38:15.490Z,11.77
2023-03-13T05:38:47.258Z,11.50
2023-03-13T05:39:19.111Z,11.90
2023-03-13T05:39:50.853Z,11.67
2023-03-13T05:40:22.653Z,11.73
2023-03-13T05:40:54.819Z,12.70
2023-03-13T05:41:26.643Z,12.03
2023-03-13T05:41:58.507Z,11.90
2023-03-13T05:42:30.333Z,13.83
2023-03-13T05:43:02.148Z,14.37
2023-03-13T05:43:33.961Z,14.47
2023-03-13T05:44:05.712Z,13.20
2023-03-13T05:44:37.503Z,12.80
2023-03-13T05:45:10.071Z,13.70
2023-03-13T05:45:41.845Z,12.20
2023-03-13T05:46:13.577Z,12.53
2023-03-13T05:46:45.444Z,11.30
2023-03-13T05:47:18.667Z,11.17
2023-03-13T05:47:50.448Z,11.40
2023-03-13T05:48:22.253Z,10.63
2023-03-13T05:48:54.052Z,10.60
2023-03-13T05:49:25.837Z,10.17
2023-03-13T05:49:57.723Z,10.57
2023-03-13T05:50:29.490Z,10.00
2023-03-13T05:51:01.270Z,10.20
2023-03-13T05:51:33.109Z,10.80
2023-03-13T05:52:05.217Z,11.07
2023-03-13T05:52:37.008Z,11.33
2023-03-13T05:53:08.814Z,11.20
2023-03-13T05:53:40.612Z,11.07
2023-03-13T05:54:15.306Z,10.70
2023-03-13T05:54:47.353Z,11.70
2023-03-13T05:55:20.146Z,11.70
2023-03-13T05:55:51.915Z,11.50
2023-03-13T05:56:23.692Z,11.47
2023-03-13T05:56:55.406Z,12.17
2023-03-13T05:57:27.199Z,11.90
2023-03-13T05:57:59.013Z,11.33
2023-03-13T05:58:30.733Z,11.60
2023-03-13T05:59:02.521Z,12.10
2023-03-13T05:59:34.344Z,11.73
2023-03-13T06:00:07.446Z,12.20
2023-03-13T06:00:39.576Z,12.80
2023-03-13T06:01:13.176Z,13.03
2023-03-13T06:01:44.899Z,14.30
2023-03-13T06:02:16.745Z,13.03
2023-03-13T06:02:48.683Z,13.50
2023-03-13T06:03:20.531Z,16.20
2023-03-13T06:03:52.540Z,15.17
2023-03-13T06:04:24.560Z,13.00
2023-03-13T06:04:56.507Z,12.57
2023-03-13T06:05:28.381Z,12.97
2023-03-13T06:06:00.150Z,12.70
2023-03-13T06:06:31.865Z,13.27
2023-03-13T06:07:03.632Z,13.73
2023-03-13T06:07:35.938Z,13.33
2023-03-13T06:08:07.719Z,14.10
2023-03-13T06:08:39.830Z,14.13
2023-03-13T06:09:11.866Z,14.33
2023-03-13T06:09:43.613Z,15.10
2023-03-13T06:10:15.516Z,15.73
2023-03-13T06:10:47.252Z,15.40
2023-03-13T06:11:19.407Z,16.20
2023-03-13T06:11:51.366Z,15.87
2023-03-13T06:12:23.173Z,15.23
2023-03-13T06:12:56.235Z,15.20
2023-03-13T06:13:28.290Z,15.80
2023-03-13T06:14:00.139Z,16.27
2023-03-13T06:14:32.162Z,15.30
2023-03-13T06:15:04.268Z,15.67
2023-03-13T06:15:36.287Z,15.37
2023-03-13T06:16:08.609Z,15.53
2023-03-13T06:16:40.691Z,16.10
2023-03-13T06:17:12.653Z,16.27
2023-03-13T06:17:44.511Z,15.87
2023-03-13T06:18:16.365Z,16.57
2023-03-13T06:18:48.163Z,16.53
2023-03-13T06:19:20.480Z,16.80
2023-03-13T06:19:52.303Z,17.00
2023-03-13T06:20:24.000Z,17.03
2023-03-13T06:20:58.739Z,17.60
2023-03-13T06:21:30.605Z,17.70
2023-03-13T06:22:02.406Z,17.50
2023-03-13T06:22:34.168Z,16.63
2023-03-13T06:23:05.922Z,17.97
2023-03-13T06:23:37.746Z,16.70
2023-03-13T06:24:09.494Z,17.60
2023-03-13T06:24:41.455Z,17.70
2023-03-13T06:25:13.230Z,16.97
2023-03-13T06:25:48.675Z,16.77
2023-03-13T06:26:20.496Z,17.97
2023-03-13T06:26:52.362Z,17.03
2023-03-13T06:27:24.132Z,17.50
2023-03-13T06:27:55.981Z,18.00
2023-03-13T06:28:27.872Z,18.07
2023-03-13T06:28:59.831Z,17.03
2023-03-13T06:29:31.622Z,16.80
2023-03-13T06:30:03.950Z,16.40
2023-03-13T06:30:35.719Z,17.70
2023-03-13T06:31:08.179Z,17.03
2023-03-13T06:31:40.185Z,17.63
2023-03-13T06:32:12.085Z,17.77
2023-03-13T06:32:44.025Z,17.80
2023-03-13T06:33:15.975Z,18.13
2023-03-13T06:33:49.614Z,16.83
2023-03-13T06:34:22.155Z,16.20
2023-03-13T06:34:53.887Z,16.13
2023-03-13T06:35:25.634Z,17.00
2023-03-13T06:35:58.013Z,16.97
2023-03-13T06:36:29.883Z,17.13
2023-03-13T06:37:01.713Z,16.93
2023-03-13T06:37:34.031Z,17.87
2023-03-13T06:38:05.837Z,17.40
2023-03-13T06:38:37.690Z,17.57
2023-03-13T06:39:10.512Z,18.20
2023-03-13T06:39:42.277Z,18.60
2023-03-13T06:40:14.202Z,18.97
2023-03-13T06:40:47.611Z,18.77
2023-03-13T06:41:19.903Z,18.73
2023-03-13T06:41:51.865Z,19.00
2023-03-13T06:42:23.656Z,20.00
2023-03-13T06:42:55.336Z,20.50
2023-03-13T06:43:27.408Z,20.93
2023-03-13T06:43:59.183Z,22.70
2023-03-13T06:44:30.945Z,23.53
2023-03-13T06:45:03.529Z,23.97
2023-03-13T06:45:36.540Z,24.90
2023-03-13T06:46:14.841Z,23.73
2023-03-13T06:46:46.827Z,24.00
2023-03-13T06:47:18.765Z,22.83
2023-03-13T06:47:51.856Z,21.53
2023-03-13T06:48:23.644Z,19.70
2023-03-13T06:48:55.433Z,19.83
2023-03-13T06:49:27.210Z,19.03
2023-03-13T06:49:59.069Z,19.13
2023-03-13T06:50:32.152Z,19.63
2023-03-13T06:51:04.224Z,19.73
2023-03-13T06:51:36.075Z,19.77
2023-03-13T06:52:08.313Z,18.50
2023-03-13T06:52:43.894Z,17.17
2023-03-13T06:53:19.568Z,17.10
2023-03-13T06:53:52.483Z,18.93
2023-03-13T06:54:24.447Z,17.77
2023-03-13T06:54:56.532Z,17.93
2023-03-13T06:55:28.309Z,18.43
2023-03-13T06:56:01.182Z,18.27
2023-03-13T06:56:32.968Z,19.07
2023-03-13T06:57:04.781Z,17.90
2023-03-13T06:57:36.552Z,17.77
2023-03-13T06:58:12.177Z,19.23
2023-03-13T06:58:50.822Z,17.33
2023-03-13T06:59:22.564Z,16.90
2023-03-13T06:59:54.447Z,18.27
2023-03-13T07:00:26.356Z,18.17
2023-03-13T07:00:58.629Z,17.23
2023-03-13T07:01:30.618Z,17.87
2023-03-13T07:02:02.845Z,17.80
2023-03-13T07:02:34.702Z,17.73
2023-03-13T07:03:06.737Z,18.07
2023-03-13T07:03:39.694Z,17.90
2023-03-13T07:04:13.628Z,17.50
2023-03-13T07:04:46.613Z,17.10
2023-03-13T07:05:18.403Z,17.17
2023-03-13T07:05:56.229Z,18.53
2023-03-13T07:06:28.235Z,18.20
2023-03-13T07:07:00.126Z,17.90
2023-03-13T07:07:33.682Z,18.33
2023-03-13T07:08:05.594Z,18.23
2023-03-13T07:08:37.947Z,16.67